sensor_id;sensor_type;location;lat;lon;timestamp;temperature;humidity
43561;DHT22;32305;46.410;17.394;2022-07-29T00:00:14;27.00;50.60
43561;DHT22;32305;46.410;17.394;2022-07-29T00:02:41;27.00;50.60
43561;DHT22;32305;46.410;17.394;2022-07-29T00:05:09;27.00;50.70
43561;DHT22;32305;46.410;17.394;2022-07-29T00:07:36;27.00;50.60
43561;DHT22;32305;46.410;17.394;2022-07-29T00:10:04;27.00;50.70
43561;DHT22;32305;46.410;17.394;2022-07-29T00:12:31;27.00;50.70
43561;DHT22;32305;46.410;17.394;2022-07-29T00:14:58;27.00;50.70
43561;DHT22;32305;46.410;17.394;2022-07-29T00:17:25;27.00;50.70
43561;DHT22;32305;46.410;17.394;2022-07-29T00:19:53;26.90;50.60
43561;DHT22;32305;46.410;17.394;2022-07-29T00:22:20;27.00;50.70
43561;DHT22;32305;46.410;17.394;2022-07-29T00:24:48;27.00;50.80
43561;DHT22;32305;46.410;17.394;2022-07-29T00:27:17;26.90;50.70
43561;DHT22;32305;46.410;17.394;2022-07-29T00:29:44;27.00;50.80
43561;DHT22;32305;46.410;17.394;2022-07-29T00:32:11;26.90;50.70
43561;DHT22;32305;46.410;17.394;2022-07-29T00:34:39;26.90;50.70
43561;DHT22;32305;46.410;17.394;2022-07-29T00:37:26;26.90;50.70
43561;DHT22;32305;46.410;17.394;2022-07-29T00:39:53;26.90;50.70
43561;DHT22;32305;46.410;17.394;2022-07-29T00:42:20;26.90;50.80
43561;DHT22;32305;46.410;17.394;2022-07-29T00:44:47;26.90;50.70
43561;DHT22;32305;46.410;17.394;2022-07-29T00:47:14;26.90;50.80
43561;DHT22;32305;46.410;17.394;2022-07-29T00:49:42;26.90;50.80
43561;DHT22;32305;46.410;17.394;2022-07-29T00:52:10;26.90;50.80
43561;DHT22;32305;46.410;17.394;2022-07-29T00:54:39;26.90;50.80
43561;DHT22;32305;46.410;17.394;2022-07-29T00:57:11;26.90;50.80
43561;DHT22;32305;46.410;17.394;2022-07-29T00:59:39;26.90;50.80
43561;DHT22;32305;46.410;17.394;2022-07-29T01:02:06;26.90;50.80
43561;DHT22;32305;46.410;17.394;2022-07-29T01:04:33;26.90;50.90
43561;DHT22;32305;46.410;17.394;2022-07-29T01:07:02;26.90;50.90
43561;DHT22;32305;46.410;17.394;2022-07-29T01:09:32;26.80;50.90
43561;DHT22;32305;46.410;17.394;2022-07-29T01:12:18;26.80;50.90
43561;DHT22;32305;46.410;17.394;2022-07-29T01:14:47;26.90;50.90
43561;DHT22;32305;46.410;17.394;2022-07-29T01:17:39;26.90;50.90
43561;DHT22;32305;46.410;17.394;2022-07-29T01:20:52;26.90;50.90
43561;DHT22;32305;46.410;17.394;2022-07-29T01:23:55;26.90;50.90
43561;DHT22;32305;46.410;17.394;2022-07-29T01:26:45;26.80;50.80
43561;DHT22;32305;46.410;17.394;2022-07-29T01:29:26;26.90;50.90
43561;DHT22;32305;46.410;17.394;2022-07-29T01:32:08;26.80;50.80
43561;DHT22;32305;46.410;17.394;2022-07-29T01:35:03;26.90;50.90
43561;DHT22;32305;46.410;17.394;2022-07-29T01:40:51;26.80;50.80
43561;DHT22;32305;46.410;17.394;2022-07-29T01:43:27;26.90;50.90
43561;DHT22;32305;46.410;17.394;2022-07-29T01:46:01;26.80;50.80
43561;DHT22;32305;46.410;17.394;2022-07-29T01:48:41;26.90;50.90
43561;DHT22;32305;46.410;17.394;2022-07-29T01:51:31;26.90;50.90
43561;DHT22;32305;46.410;17.394;2022-07-29T01:54:19;26.90;50.90
43561;DHT22;32305;46.410;17.394;2022-07-29T01:56:49;26.80;50.90
43561;DHT22;32305;46.410;17.394;2022-07-29T01:59:18;26.80;50.90
43561;DHT22;32305;46.410;17.394;2022-07-29T02:01:48;26.80;50.90
43561;DHT22;32305;46.410;17.394;2022-07-29T02:04:20;26.80;50.90
43561;DHT22;32305;46.410;17.394;2022-07-29T02:07:00;26.90;50.90
43561;DHT22;32305;46.410;17.394;2022-07-29T02:09:30;26.80;50.90
43561;DHT22;32305;46.410;17.394;2022-07-29T02:11:59;26.80;50.90
43561;DHT22;32305;46.410;17.394;2022-07-29T02:14:30;26.80;50.90
43561;DHT22;32305;46.410;17.394;2022-07-29T02:17:00;26.80;50.90
43561;DHT22;32305;46.410;17.394;2022-07-29T02:19:29;26.80;50.90
43561;DHT22;32305;46.410;17.394;2022-07-29T02:21:58;26.80;50.90
43561;DHT22;32305;46.410;17.394;2022-07-29T02:24:27;26.80;50.90
43561;DHT22;32305;46.410;17.394;2022-07-29T02:26:56;26.80;50.90
43561;DHT22;32305;46.410;17.394;2022-07-29T02:29:26;26.80;50.90
43561;DHT22;32305;46.410;17.394;2022-07-29T02:31:54;26.80;50.90
43561;DHT22;32305;46.410;17.394;2022-07-29T02:34:23;26.80;50.90
43561;DHT22;32305;46.410;17.394;2022-07-29T02:36:52;26.80;50.90
43561;DHT22;32305;46.410;17.394;2022-07-29T02:39:22;26.80;51.00
43561;DHT22;32305;46.410;17.394;2022-07-29T02:41:55;26.80;51.00
43561;DHT22;32305;46.410;17.394;2022-07-29T02:44:25;26.80;51.00
43561;DHT22;32305;46.410;17.394;2022-07-29T02:47:18;26.80;51.00
43561;DHT22;32305;46.410;17.394;2022-07-29T02:50:02;26.80;51.00
43561;DHT22;32305;46.410;17.394;2022-07-29T02:53:01;26.80;51.00
43561;DHT22;32305;46.410;17.394;2022-07-29T02:55:43;26.70;50.90
43561;DHT22;32305;46.410;17.394;2022-07-29T02:58:33;26.80;50.90
43561;DHT22;32305;46.410;17.394;2022-07-29T03:01:03;26.80;50.90
43561;DHT22;32305;46.410;17.394;2022-07-29T03:03:36;26.80;50.90
43561;DHT22;32305;46.410;17.394;2022-07-29T03:06:05;26.70;50.90
43561;DHT22;32305;46.410;17.394;2022-07-29T03:08:34;26.80;50.90
43561;DHT22;32305;46.410;17.394;2022-07-29T03:11:01;26.70;50.80
43561;DHT22;32305;46.410;17.394;2022-07-29T03:13:29;26.80;50.90
43561;DHT22;32305;46.410;17.394;2022-07-29T03:15:57;26.80;50.90
43561;DHT22;32305;46.410;17.394;2022-07-29T03:18:26;26.80;50.90
43561;DHT22;32305;46.410;17.394;2022-07-29T03:20:54;26.80;50.90
43561;DHT22;32305;46.410;17.394;2022-07-29T03:23:22;26.80;50.90
43561;DHT22;32305;46.410;17.394;2022-07-29T03:25:51;26.80;50.90
43561;DHT22;32305;46.410;17.394;2022-07-29T03:28:19;26.80;50.90
43561;DHT22;32305;46.410;17.394;2022-07-29T03:30:48;26.80;50.90
43561;DHT22;32305;46.410;17.394;2022-07-29T03:33:15;26.80;50.90
43561;DHT22;32305;46.410;17.394;2022-07-29T03:35:43;26.80;50.90
43561;DHT22;32305;46.410;17.394;2022-07-29T03:38:10;26.70;50.80
43561;DHT22;32305;46.410;17.394;2022-07-29T03:40:56;26.80;50.90
43561;DHT22;32305;46.410;17.394;2022-07-29T03:43:25;26.80;50.90
43561;DHT22;32305;46.410;17.394;2022-07-29T03:45:55;26.80;50.90
43561;DHT22;32305;46.410;17.394;2022-07-29T03:48:24;26.80;50.90
43561;DHT22;32305;46.410;17.394;2022-07-29T03:50:53;26.80;50.90
43561;DHT22;32305;46.410;17.394;2022-07-29T03:53:20;26.80;50.90
43561;DHT22;32305;46.410;17.394;2022-07-29T03:55:52;26.80;50.90
43561;DHT22;32305;46.410;17.394;2022-07-29T03:58:21;26.80;50.90
43561;DHT22;32305;46.410;17.394;2022-07-29T04:00:49;26.80;50.90
43561;DHT22;32305;46.410;17.394;2022-07-29T04:03:16;26.80;50.90
43561;DHT22;32305;46.410;17.394;2022-07-29T04:05:44;26.80;50.90
43561;DHT22;32305;46.410;17.394;2022-07-29T04:08:11;26.80;50.90
43561;DHT22;32305;46.410;17.394;2022-07-29T04:10:38;26.80;50.90
43561;DHT22;32305;46.410;17.394;2022-07-29T04:13:05;26.80;50.80
43561;DHT22;32305;46.410;17.394;2022-07-29T04:15:32;26.80;50.80
43561;DHT22;32305;46.410;17.394;2022-07-29T04:18:00;26.80;50.80
43561;DHT22;32305;46.410;17.394;2022-07-29T04:20:27;26.80;50.70
43561;DHT22;32305;46.410;17.394;2022-07-29T04:22:54;26.90;50.70
43561;DHT22;32305;46.410;17.394;2022-07-29T04:25:21;26.80;50.60
43561;DHT22;32305;46.410;17.394;2022-07-29T04:27:49;26.90;50.70
43561;DHT22;32305;46.410;17.394;2022-07-29T04:30:31;26.90;50.60
43561;DHT22;32305;46.410;17.394;2022-07-29T04:32:59;26.90;50.60
43561;DHT22;32305;46.410;17.394;2022-07-29T04:35:28;26.90;50.60
43561;DHT22;32305;46.410;17.394;2022-07-29T04:38:05;26.90;51.10
43561;DHT22;32305;46.410;17.394;2022-07-29T04:40:33;27.00;50.50
43561;DHT22;32305;46.410;17.394;2022-07-29T04:43:04;27.00;50.50
43561;DHT22;32305;46.410;17.394;2022-07-29T04:45:31;27.00;50.40
43561;DHT22;32305;46.410;17.394;2022-07-29T04:47:58;27.00;50.30
43561;DHT22;32305;46.410;17.394;2022-07-29T04:50:26;27.00;50.30
43561;DHT22;32305;46.410;17.394;2022-07-29T04:52:53;27.10;50.30
43561;DHT22;32305;46.410;17.394;2022-07-29T04:55:20;27.10;50.20
43561;DHT22;32305;46.410;17.394;2022-07-29T04:57:47;27.10;50.10
43561;DHT22;32305;46.410;17.394;2022-07-29T05:00:14;27.10;50.00
43561;DHT22;32305;46.410;17.394;2022-07-29T05:02:41;27.20;50.00
43561;DHT22;32305;46.410;17.394;2022-07-29T05:05:09;27.20;49.90
43561;DHT22;32305;46.410;17.394;2022-07-29T05:07:36;27.20;49.80
43561;DHT22;32305;46.410;17.394;2022-07-29T05:10:04;27.20;49.90
43561;DHT22;32305;46.410;17.394;2022-07-29T05:12:31;27.10;49.80
43561;DHT22;32305;46.410;17.394;2022-07-29T05:14:58;27.10;50.00
43561;DHT22;32305;46.410;17.394;2022-07-29T05:17:26;27.00;50.20
43561;DHT22;32305;46.410;17.394;2022-07-29T05:19:53;26.80;50.40
43561;DHT22;32305;46.410;17.394;2022-07-29T05:22:21;26.60;50.30
43561;DHT22;32305;46.410;17.394;2022-07-29T05:24:48;26.30;50.30
43561;DHT22;32305;46.410;17.394;2022-07-29T05:27:15;26.00;50.30
43561;DHT22;32305;46.410;17.394;2022-07-29T05:29:43;25.70;50.10
43561;DHT22;32305;46.410;17.394;2022-07-29T05:32:12;25.50;49.90
43561;DHT22;32305;46.410;17.394;2022-07-29T05:34:40;25.20;49.60
43561;DHT22;32305;46.410;17.394;2022-07-29T05:37:20;25.00;49.20
43561;DHT22;32305;46.410;17.394;2022-07-29T05:39:48;24.70;49.10
43561;DHT22;32305;46.410;17.394;2022-07-29T05:42:23;24.50;50.00
43561;DHT22;32305;46.410;17.394;2022-07-29T05:44:51;24.20;49.20
43561;DHT22;32305;46.410;17.394;2022-07-29T05:47:18;23.90;48.80
43561;DHT22;32305;46.410;17.394;2022-07-29T05:49:45;23.60;49.10
43561;DHT22;32305;46.410;17.394;2022-07-29T05:52:13;23.30;49.50
43561;DHT22;32305;46.410;17.394;2022-07-29T05:54:41;22.90;50.60
43561;DHT22;32305;46.410;17.394;2022-07-29T05:57:21;22.50;50.90
43561;DHT22;32305;46.410;17.394;2022-07-29T05:59:49;22.20;53.20
43561;DHT22;32305;46.410;17.394;2022-07-29T06:02:17;22.00;54.80
43561;DHT22;32305;46.410;17.394;2022-07-29T06:04:45;21.80;54.80
43561;DHT22;32305;46.410;17.394;2022-07-29T06:07:13;21.60;55.60
43561;DHT22;32305;46.410;17.394;2022-07-29T06:09:40;21.50;56.10
43561;DHT22;32305;46.410;17.394;2022-07-29T06:12:08;21.40;56.20
43561;DHT22;32305;46.410;17.394;2022-07-29T06:14:35;21.30;57.60
43561;DHT22;32305;46.410;17.394;2022-07-29T06:17:03;21.30;58.50
43561;DHT22;32305;46.410;17.394;2022-07-29T06:19:30;21.40;57.20
43561;DHT22;32305;46.410;17.394;2022-07-29T06:21:57;21.40;58.50
43561;DHT22;32305;46.410;17.394;2022-07-29T06:24:25;21.40;57.30
43561;DHT22;32305;46.410;17.394;2022-07-29T06:26:52;21.40;56.90
43561;DHT22;32305;46.410;17.394;2022-07-29T06:29:19;21.40;57.40
43561;DHT22;32305;46.410;17.394;2022-07-29T06:31:47;21.40;57.40
43561;DHT22;32305;46.410;17.394;2022-07-29T06:34:15;21.40;56.80
43561;DHT22;32305;46.410;17.394;2022-07-29T06:36:43;21.40;56.50
43561;DHT22;32305;46.410;17.394;2022-07-29T06:39:11;21.30;56.80
43561;DHT22;32305;46.410;17.394;2022-07-29T06:41:39;21.30;56.60
43561;DHT22;32305;46.410;17.394;2022-07-29T06:44:06;21.30;56.80
43561;DHT22;32305;46.410;17.394;2022-07-29T06:46:33;21.30;57.00
43561;DHT22;32305;46.410;17.394;2022-07-29T06:49:01;21.30;56.90
43561;DHT22;32305;46.410;17.394;2022-07-29T06:51:29;21.30;57.10
43561;DHT22;32305;46.410;17.394;2022-07-29T06:53:57;21.30;57.30
43561;DHT22;32305;46.410;17.394;2022-07-29T06:56:30;21.30;57.30
43561;DHT22;32305;46.410;17.394;2022-07-29T06:59:07;21.30;57.50
43561;DHT22;32305;46.410;17.394;2022-07-29T07:01:39;21.20;57.60
43561;DHT22;32305;46.410;17.394;2022-07-29T07:04:08;21.20;57.50
43561;DHT22;32305;46.410;17.394;2022-07-29T07:06:39;21.20;57.60
43561;DHT22;32305;46.410;17.394;2022-07-29T07:09:06;21.30;57.60
43561;DHT22;32305;46.410;17.394;2022-07-29T07:11:33;21.30;57.90
43561;DHT22;32305;46.410;17.394;2022-07-29T07:14:01;21.30;57.60
43561;DHT22;32305;46.410;17.394;2022-07-29T07:16:30;21.30;57.80
43561;DHT22;32305;46.410;17.394;2022-07-29T07:18:58;21.30;58.30
43561;DHT22;32305;46.410;17.394;2022-07-29T07:21:26;21.30;58.40
43561;DHT22;32305;46.410;17.394;2022-07-29T07:23:57;21.30;58.70
43561;DHT22;32305;46.410;17.394;2022-07-29T07:26:24;21.40;59.00
43561;DHT22;32305;46.410;17.394;2022-07-29T07:28:52;21.40;59.00
43561;DHT22;32305;46.410;17.394;2022-07-29T07:31:19;21.50;59.50
43561;DHT22;32305;46.410;17.394;2022-07-29T07:33:47;21.50;59.40
43561;DHT22;32305;46.410;17.394;2022-07-29T07:36:15;21.50;59.50
43561;DHT22;32305;46.410;17.394;2022-07-29T07:38:42;21.50;59.80
43561;DHT22;32305;46.410;17.394;2022-07-29T07:41:09;21.60;59.80
43561;DHT22;32305;46.410;17.394;2022-07-29T07:43:36;21.60;59.60
43561;DHT22;32305;46.410;17.394;2022-07-29T07:46:04;21.70;59.70
43561;DHT22;32305;46.410;17.394;2022-07-29T07:48:32;21.70;59.80
43561;DHT22;32305;46.410;17.394;2022-07-29T07:51:01;21.80;59.50
43561;DHT22;32305;46.410;17.394;2022-07-29T07:53:29;21.90;59.20
43561;DHT22;32305;46.410;17.394;2022-07-29T07:55:58;21.90;59.40
43561;DHT22;32305;46.410;17.394;2022-07-29T07:58:38;21.90;59.00
43561;DHT22;32305;46.410;17.394;2022-07-29T08:01:05;21.90;59.40
43561;DHT22;32305;46.410;17.394;2022-07-29T08:03:33;21.90;59.40
43561;DHT22;32305;46.410;17.394;2022-07-29T08:06:00;21.90;59.00
43561;DHT22;32305;46.410;17.394;2022-07-29T08:08:27;21.90;59.10
43561;DHT22;32305;46.410;17.394;2022-07-29T08:10:55;21.90;59.00
43561;DHT22;32305;46.410;17.394;2022-07-29T08:13:25;21.90;59.40
43561;DHT22;32305;46.410;17.394;2022-07-29T08:15:54;21.90;59.30
43561;DHT22;32305;46.410;17.394;2022-07-29T08:18:25;21.90;59.30
43561;DHT22;32305;46.410;17.394;2022-07-29T08:20:53;21.90;59.10
43561;DHT22;32305;46.410;17.394;2022-07-29T08:23:20;21.90;59.10
43561;DHT22;32305;46.410;17.394;2022-07-29T08:25:48;22.00;59.00
43561;DHT22;32305;46.410;17.394;2022-07-29T08:28:16;21.90;58.90
43561;DHT22;32305;46.410;17.394;2022-07-29T08:30:44;21.90;58.50
43561;DHT22;32305;46.410;17.394;2022-07-29T08:33:13;21.90;58.50
43561;DHT22;32305;46.410;17.394;2022-07-29T08:35:40;21.90;58.30
43561;DHT22;32305;46.410;17.394;2022-07-29T08:38:07;21.90;58.40
43561;DHT22;32305;46.410;17.394;2022-07-29T08:40:35;21.80;58.20
43561;DHT22;32305;46.410;17.394;2022-07-29T08:43:07;21.80;58.10
43561;DHT22;32305;46.410;17.394;2022-07-29T08:45:46;21.80;58.40
43561;DHT22;32305;46.410;17.394;2022-07-29T08:48:21;21.80;58.30
43561;DHT22;32305;46.410;17.394;2022-07-29T08:50:56;21.80;58.50
43561;DHT22;32305;46.410;17.394;2022-07-29T08:53:26;21.80;59.00
43561;DHT22;32305;46.410;17.394;2022-07-29T08:55:55;21.70;59.30
43561;DHT22;32305;46.410;17.394;2022-07-29T08:58:23;21.70;59.20
43561;DHT22;32305;46.410;17.394;2022-07-29T09:00:55;21.70;59.40
43561;DHT22;32305;46.410;17.394;2022-07-29T09:03:25;21.80;59.10
43561;DHT22;32305;46.410;17.394;2022-07-29T09:05:54;21.80;59.00
43561;DHT22;32305;46.410;17.394;2022-07-29T09:08:22;21.80;58.90
43561;DHT22;32305;46.410;17.394;2022-07-29T09:10:50;21.80;58.50
43561;DHT22;32305;46.410;17.394;2022-07-29T09:13:18;21.80;58.30
43561;DHT22;32305;46.410;17.394;2022-07-29T09:15:45;21.80;58.50
43561;DHT22;32305;46.410;17.394;2022-07-29T09:18:12;21.90;58.10
43561;DHT22;32305;46.410;17.394;2022-07-29T09:20:56;21.90;58.20
43561;DHT22;32305;46.410;17.394;2022-07-29T09:24:05;22.00;60.40
43561;DHT22;32305;46.410;17.394;2022-07-29T09:26:36;22.20;60.10
43561;DHT22;32305;46.410;17.394;2022-07-29T09:29:15;22.50;59.40
43561;DHT22;32305;46.410;17.394;2022-07-29T09:31:45;22.70;58.70
43561;DHT22;32305;46.410;17.394;2022-07-29T09:34:28;22.90;58.20
43561;DHT22;32305;46.410;17.394;2022-07-29T09:36:56;23.00;57.90
43561;DHT22;32305;46.410;17.394;2022-07-29T09:39:38;23.10;57.90
43561;DHT22;32305;46.410;17.394;2022-07-29T09:42:13;23.20;57.50
43561;DHT22;32305;46.410;17.394;2022-07-29T09:44:50;23.30;57.20
43561;DHT22;32305;46.410;17.394;2022-07-29T09:47:18;23.40;56.90
43561;DHT22;32305;46.410;17.394;2022-07-29T09:49:56;23.50;56.60
43561;DHT22;32305;46.410;17.394;2022-07-29T09:52:28;23.60;56.30
43561;DHT22;32305;46.410;17.394;2022-07-29T09:55:07;23.60;56.10
43561;DHT22;32305;46.410;17.394;2022-07-29T09:57:35;23.60;55.80
43561;DHT22;32305;46.410;17.394;2022-07-29T10:00:09;23.60;55.60
43561;DHT22;32305;46.410;17.394;2022-07-29T10:02:38;23.60;55.40
43561;DHT22;32305;46.410;17.394;2022-07-29T10:05:18;23.70;55.20
43561;DHT22;32305;46.410;17.394;2022-07-29T10:07:51;23.60;55.00
43561;DHT22;32305;46.410;17.394;2022-07-29T10:10:29;23.70;54.70
43561;DHT22;32305;46.410;17.394;2022-07-29T10:13:02;23.60;54.60
43561;DHT22;32305;46.410;17.394;2022-07-29T10:15:43;23.60;54.50
43561;DHT22;32305;46.410;17.394;2022-07-29T10:18:13;23.60;54.30
43561;DHT22;32305;46.410;17.394;2022-07-29T10:20:41;23.60;54.70
43561;DHT22;32305;46.410;17.394;2022-07-29T10:23:09;23.60;54.00
43561;DHT22;32305;46.410;17.394;2022-07-29T10:25:36;23.60;53.90
43561;DHT22;32305;46.410;17.394;2022-07-29T10:28:05;23.60;54.00
43561;DHT22;32305;46.410;17.394;2022-07-29T10:30:33;23.60;54.10
43561;DHT22;32305;46.410;17.394;2022-07-29T10:33:30;23.60;54.00
43561;DHT22;32305;46.410;17.394;2022-07-29T10:36:24;23.60;53.80
43561;DHT22;32305;46.410;17.394;2022-07-29T10:39:05;23.60;53.90
43561;DHT22;32305;46.410;17.394;2022-07-29T10:42:02;23.60;54.00
43561;DHT22;32305;46.410;17.394;2022-07-29T10:44:35;23.60;53.90
43561;DHT22;32305;46.410;17.394;2022-07-29T10:47:07;23.60;53.90
43561;DHT22;32305;46.410;17.394;2022-07-29T10:49:35;23.60;53.90
43561;DHT22;32305;46.410;17.394;2022-07-29T10:52:08;23.60;53.80
43561;DHT22;32305;46.410;17.394;2022-07-29T10:54:47;23.60;53.80
43561;DHT22;32305;46.410;17.394;2022-07-29T10:57:29;23.60;53.80
43561;DHT22;32305;46.410;17.394;2022-07-29T11:00:28;23.60;53.80
43561;DHT22;32305;46.410;17.394;2022-07-29T11:02:55;23.60;53.90
43561;DHT22;32305;46.410;17.394;2022-07-29T11:05:25;23.60;53.90
43561;DHT22;32305;46.410;17.394;2022-07-29T11:08:18;23.60;54.00
43561;DHT22;32305;46.410;17.394;2022-07-29T11:11:30;23.60;54.30
43561;DHT22;32305;46.410;17.394;2022-07-29T11:14:00;23.60;54.30
43561;DHT22;32305;46.410;17.394;2022-07-29T11:17:02;23.70;54.40
43561;DHT22;32305;46.410;17.394;2022-07-29T11:19:33;23.70;54.20
43561;DHT22;32305;46.410;17.394;2022-07-29T11:22:01;23.70;54.30
43561;DHT22;32305;46.410;17.394;2022-07-29T11:24:30;23.70;54.30
43561;DHT22;32305;46.410;17.394;2022-07-29T11:27:19;23.80;54.20
43561;DHT22;32305;46.410;17.394;2022-07-29T11:29:56;23.80;54.00
43561;DHT22;32305;46.410;17.394;2022-07-29T11:32:25;23.80;54.00
43561;DHT22;32305;46.410;17.394;2022-07-29T11:35:15;23.80;53.90
43561;DHT22;32305;46.410;17.394;2022-07-29T11:37:46;23.80;53.60
43561;DHT22;32305;46.410;17.394;2022-07-29T11:40:19;23.80;53.40
43561;DHT22;32305;46.410;17.394;2022-07-29T11:42:47;23.80;53.50
43561;DHT22;32305;46.410;17.394;2022-07-29T11:45:20;23.80;53.90
43561;DHT22;32305;46.410;17.394;2022-07-29T11:48:07;23.80;53.70
43561;DHT22;32305;46.410;17.394;2022-07-29T11:50:59;23.80;53.70
43561;DHT22;32305;46.410;17.394;2022-07-29T11:53:26;23.80;53.60
43561;DHT22;32305;46.410;17.394;2022-07-29T11:55:59;23.80;53.30
43561;DHT22;32305;46.410;17.394;2022-07-29T11:58:28;23.80;53.30
43561;DHT22;32305;46.410;17.394;2022-07-29T12:00:56;23.70;53.30
43561;DHT22;32305;46.410;17.394;2022-07-29T12:03:30;23.80;53.40
43561;DHT22;32305;46.410;17.394;2022-07-29T12:06:10;23.70;52.80
43561;DHT22;32305;46.410;17.394;2022-07-29T12:08:41;23.70;53.10
43561;DHT22;32305;46.410;17.394;2022-07-29T12:11:18;23.50;53.10
43561;DHT22;32305;46.410;17.394;2022-07-29T12:13:48;23.40;53.30
43561;DHT22;32305;46.410;17.394;2022-07-29T12:16:16;23.20;53.50
43561;DHT22;32305;46.410;17.394;2022-07-29T12:19:02;23.10;53.80
43561;DHT22;32305;46.410;17.394;2022-07-29T12:21:44;23.00;53.90
43561;DHT22;32305;46.410;17.394;2022-07-29T12:24:23;22.90;54.10
43561;DHT22;32305;46.410;17.394;2022-07-29T12:26:59;22.80;54.30
43561;DHT22;32305;46.410;17.394;2022-07-29T12:29:28;22.70;54.60
43561;DHT22;32305;46.410;17.394;2022-07-29T12:32:03;22.70;54.70
43561;DHT22;32305;46.410;17.394;2022-07-29T12:34:40;22.60;54.90
43561;DHT22;32305;46.410;17.394;2022-07-29T12:37:09;22.50;54.90
43561;DHT22;32305;46.410;17.394;2022-07-29T12:39:37;22.50;54.90
43561;DHT22;32305;46.410;17.394;2022-07-29T12:42:12;22.50;55.30
43561;DHT22;32305;46.410;17.394;2022-07-29T12:44:49;22.50;55.20
43561;DHT22;32305;46.410;17.394;2022-07-29T12:47:17;22.40;55.10
43561;DHT22;32305;46.410;17.394;2022-07-29T12:49:45;22.40;55.00
43561;DHT22;32305;46.410;17.394;2022-07-29T12:52:32;22.40;55.20
43561;DHT22;32305;46.410;17.394;2022-07-29T12:55:01;22.40;55.30
43561;DHT22;32305;46.410;17.394;2022-07-29T12:57:28;22.30;55.30
43561;DHT22;32305;46.410;17.394;2022-07-29T13:00:07;22.30;55.70
43561;DHT22;32305;46.410;17.394;2022-07-29T13:02:36;22.30;55.60
43561;DHT22;32305;46.410;17.394;2022-07-29T13:05:04;22.30;55.50
43561;DHT22;32305;46.410;17.394;2022-07-29T13:07:33;22.30;55.60
43561;DHT22;32305;46.410;17.394;2022-07-29T13:10:21;22.30;55.60
43561;DHT22;32305;46.410;17.394;2022-07-29T13:13:05;22.20;55.50
43561;DHT22;32305;46.410;17.394;2022-07-29T13:15:33;22.30;55.60
43561;DHT22;32305;46.410;17.394;2022-07-29T13:18:00;22.20;55.70
43561;DHT22;32305;46.410;17.394;2022-07-29T13:20:29;22.20;55.70
43561;DHT22;32305;46.410;17.394;2022-07-29T13:23:00;22.20;55.70
43561;DHT22;32305;46.410;17.394;2022-07-29T13:25:31;22.20;55.70
43561;DHT22;32305;46.410;17.394;2022-07-29T13:27:59;22.10;55.80
43561;DHT22;32305;46.410;17.394;2022-07-29T13:30:27;22.10;55.80
43561;DHT22;32305;46.410;17.394;2022-07-29T13:32:54;22.10;55.70
43561;DHT22;32305;46.410;17.394;2022-07-29T13:35:22;22.10;55.90
43561;DHT22;32305;46.410;17.394;2022-07-29T13:37:49;22.10;55.90
43561;DHT22;32305;46.410;17.394;2022-07-29T13:40:17;22.10;55.90
43561;DHT22;32305;46.410;17.394;2022-07-29T13:42:44;22.10;55.90
43561;DHT22;32305;46.410;17.394;2022-07-29T13:45:13;22.10;56.00
43561;DHT22;32305;46.410;17.394;2022-07-29T13:47:40;22.10;56.20
43561;DHT22;32305;46.410;17.394;2022-07-29T13:50:15;22.10;56.00
43561;DHT22;32305;46.410;17.394;2022-07-29T13:52:42;22.10;56.00
43561;DHT22;32305;46.410;17.394;2022-07-29T13:55:09;22.10;55.90
43561;DHT22;32305;46.410;17.394;2022-07-29T13:57:36;22.10;55.80
43561;DHT22;32305;46.410;17.394;2022-07-29T14:00:04;22.10;55.70
43561;DHT22;32305;46.410;17.394;2022-07-29T14:02:31;22.10;55.70
43561;DHT22;32305;46.410;17.394;2022-07-29T14:04:59;22.10;55.80
43561;DHT22;32305;46.410;17.394;2022-07-29T14:07:33;22.10;55.90
43561;DHT22;32305;46.410;17.394;2022-07-29T14:10:00;22.10;55.90
43561;DHT22;32305;46.410;17.394;2022-07-29T14:12:28;22.10;55.80
43561;DHT22;32305;46.410;17.394;2022-07-29T14:14:55;22.10;56.00
43561;DHT22;32305;46.410;17.394;2022-07-29T14:17:22;22.10;55.80
43561;DHT22;32305;46.410;17.394;2022-07-29T14:19:50;22.10;55.80
43561;DHT22;32305;46.410;17.394;2022-07-29T14:22:17;22.10;55.90
43561;DHT22;32305;46.410;17.394;2022-07-29T14:24:48;22.10;55.80
43561;DHT22;32305;46.410;17.394;2022-07-29T14:27:15;22.10;55.90
43561;DHT22;32305;46.410;17.394;2022-07-29T14:29:43;22.10;55.80
43561;DHT22;32305;46.410;17.394;2022-07-29T14:32:10;22.10;55.80
43561;DHT22;32305;46.410;17.394;2022-07-29T14:34:38;22.10;55.90
43561;DHT22;32305;46.410;17.394;2022-07-29T14:37:05;22.10;55.70
43561;DHT22;32305;46.410;17.394;2022-07-29T14:39:34;22.10;55.70
43561;DHT22;32305;46.410;17.394;2022-07-29T14:42:09;22.10;55.80
43561;DHT22;32305;46.410;17.394;2022-07-29T14:44:39;22.10;55.80
43561;DHT22;32305;46.410;17.394;2022-07-29T14:47:08;22.10;55.80
43561;DHT22;32305;46.410;17.394;2022-07-29T14:49:35;22.10;55.90
43561;DHT22;32305;46.410;17.394;2022-07-29T14:52:03;22.10;55.90
43561;DHT22;32305;46.410;17.394;2022-07-29T14:54:30;22.10;58.00
43561;DHT22;32305;46.410;17.394;2022-07-29T14:56:57;22.20;59.20
43561;DHT22;32305;46.410;17.394;2022-07-29T14:59:25;22.30;59.90
43561;DHT22;32305;46.410;17.394;2022-07-29T15:01:53;22.50;60.80
43561;DHT22;32305;46.410;17.394;2022-07-29T15:04:20;22.70;61.40
43561;DHT22;32305;46.410;17.394;2022-07-29T15:06:48;22.80;61.80
43561;DHT22;32305;46.410;17.394;2022-07-29T15:09:15;23.00;62.00
43561;DHT22;32305;46.410;17.394;2022-07-29T15:11:42;23.20;62.20
43561;DHT22;32305;46.410;17.394;2022-07-29T15:14:10;23.50;62.10
43561;DHT22;32305;46.410;17.394;2022-07-29T15:16:38;23.70;63.00
43561;DHT22;32305;46.410;17.394;2022-07-29T15:19:13;23.90;62.50
43561;DHT22;32305;46.410;17.394;2022-07-29T15:21:40;24.10;62.10
43561;DHT22;32305;46.410;17.394;2022-07-29T15:24:16;24.30;62.40
43561;DHT22;32305;46.410;17.394;2022-07-29T15:26:44;24.50;62.70
43561;DHT22;32305;46.410;17.394;2022-07-29T15:29:12;24.70;62.20
43561;DHT22;32305;46.410;17.394;2022-07-29T15:31:40;24.80;61.70
43561;DHT22;32305;46.410;17.394;2022-07-29T15:34:07;25.00;61.50
43561;DHT22;32305;46.410;17.394;2022-07-29T15:36:34;25.20;61.10
43561;DHT22;32305;46.410;17.394;2022-07-29T15:39:20;25.30;60.70
43561;DHT22;32305;46.410;17.394;2022-07-29T15:41:47;25.50;60.20
43561;DHT22;32305;46.410;17.394;2022-07-29T15:44:14;25.70;59.80